sensor_id;sensor_type;location;lat;lon;timestamp;temperature;humidity
16491;DHT22;8356;51.214;3.270;2024-02-15T18:22:41;410.00;2355.20
16491;DHT22;8356;51.214;3.270;2024-02-15T18:25:13;410.00;2355.20
16491;DHT22;8356;51.214;3.270;2024-02-15T18:27:39;410.10;2355.20
16491;DHT22;8356;51.214;3.270;2024-02-15T18:30:06;410.00;2355.20
16491;DHT22;8356;51.214;3.270;2024-02-15T18:32:39;410.00;2355.20
16491;DHT22;8356;51.214;3.270;2024-02-15T18:35:06;410.00;2355.20
16491;DHT22;8356;51.214;3.270;2024-02-15T18:37:41;410.00;2355.20
16491;DHT22;8356;51.214;3.270;2024-02-15T18:40:10;410.00;2355.20
16491;DHT22;8356;51.214;3.270;2024-02-15T18:42:37;410.00;2355.20
16491;DHT22;8356;51.214;3.270;2024-02-15T18:45:04;409.90;2355.20
16491;DHT22;8356;51.214;3.270;2024-02-15T18:47:30;409.90;2355.20
16491;DHT22;8356;51.214;3.270;2024-02-15T18:49:56;409.90;2355.20
16491;DHT22;8356;51.214;3.270;2024-02-15T18:52:22;409.90;2355.20
16491;DHT22;8356;51.214;3.270;2024-02-15T18:54:47;409.90;2355.20
16491;DHT22;8356;51.214;3.270;2024-02-15T18:57:13;409.90;2355.20
16491;DHT22;8356;51.214;3.270;2024-02-15T18:59:39;409.90;2355.20
16491;DHT22;8356;51.214;3.270;2024-02-15T19:02:05;409.90;2355.20
16491;DHT22;8356;51.214;3.270;2024-02-15T19:04:36;409.90;2355.20
16491;DHT22;8356;51.214;3.270;2024-02-15T19:07:04;409.80;2355.20
16491;DHT22;8356;51.214;3.270;2024-02-15T19:09:31;409.90;2355.20
16491;DHT22;8356;51.214;3.270;2024-02-15T19:11:57;409.80;2355.20
16491;DHT22;8356;51.214;3.270;2024-02-15T19:14:24;409.80;2355.20
16491;DHT22;8356;51.214;3.270;2024-02-15T19:16:50;409.80;2355.20
16491;DHT22;8356;51.214;3.270;2024-02-15T19:19:16;409.90;2355.20
16491;DHT22;8356;51.214;3.270;2024-02-15T19:21:46;409.80;2355.20
16491;DHT22;8356;51.214;3.270;2024-02-15T19:24:12;409.80;2355.20
16491;DHT22;8356;51.214;3.270;2024-02-15T19:26:38;409.80;2355.20
16491;DHT22;8356;51.214;3.270;2024-02-15T19:29:09;409.80;2355.20
16491;DHT22;8356;51.214;3.270;2024-02-15T19:31:34;409.80;2355.20
16491;DHT22;8356;51.214;3.270;2024-02-15T19:34:06;409.80;2355.20
16491;DHT22;8356;51.214;3.270;2024-02-15T19:36:32;409.80;2355.20
16491;DHT22;8356;51.214;3.270;2024-02-15T19:39:04;409.80;2355.20
16491;DHT22;8356;51.214;3.270;2024-02-15T19:41:39;409.70;2355.20
16491;DHT22;8356;51.214;3.270;2024-02-15T19:44:05;409.80;2355.20
16491;DHT22;8356;51.214;3.270;2024-02-15T19:46:32;409.80;2355.20
16491;DHT22;8356;51.214;3.270;2024-02-15T19:48:58;409.70;2355.20
16491;DHT22;8356;51.214;3.270;2024-02-15T19:51:25;409.70;2355.20
16491;DHT22;8356;51.214;3.270;2024-02-15T19:53:54;409.70;2355.20
16491;DHT22;8356;51.214;3.270;2024-02-15T19:56:20;409.70;2355.20
16491;DHT22;8356;51.214;3.270;2024-02-15T19:58:46;409.70;2355.20
16491;DHT22;8356;51.214;3.270;2024-02-15T20:01:12;409.60;2355.20
16491;DHT22;8356;51.214;3.270;2024-02-15T20:03:40;409.60;2355.20
16491;DHT22;8356;51.214;3.270;2024-02-15T20:06:06;384.90;2329.60
16491;DHT22;8356;51.214;3.270;2024-02-15T20:08:32;384.90;2329.60
16491;DHT22;8356;51.214;3.270;2024-02-15T20:10:58;384.90;2329.60
16491;DHT22;8356;51.214;3.270;2024-02-15T20:13:24;384.80;2329.60
16491;DHT22;8356;51.214;3.270;2024-02-15T20:15:50;384.80;2329.60
16491;DHT22;8356;51.214;3.270;2024-02-15T20:18:22;384.80;2329.60
16491;DHT22;8356;51.214;3.270;2024-02-15T20:20:49;384.70;2329.60
16491;DHT22;8356;51.214;3.270;2024-02-15T20:23:17;384.70;2329.60
16491;DHT22;8356;51.214;3.270;2024-02-15T20:25:43;384.70;2329.60
16491;DHT22;8356;51.214;3.270;2024-02-15T20:28:10;384.70;2329.60
16491;DHT22;8356;51.214;3.270;2024-02-15T20:30:37;384.40;2329.60
16491;DHT22;8356;51.214;3.270;2024-02-15T20:33:03;384.70;2329.60
16491;DHT22;8356;51.214;3.270;2024-02-15T20:35:30;384.70;2329.60
16491;DHT22;8356;51.214;3.270;2024-02-15T20:37:56;384.70;2329.60
16491;DHT22;8356;51.214;3.270;2024-02-15T20:40:21;384.70;2329.60
16491;DHT22;8356;51.214;3.270;2024-02-15T20:42:47;384.70;2329.60
16491;DHT22;8356;51.214;3.270;2024-02-15T20:45:13;384.60;2329.60
16491;DHT22;8356;51.214;3.270;2024-02-15T20:47:39;384.60;2329.60
16491;DHT22;8356;51.214;3.270;2024-02-15T20:50:06;384.60;2329.60
16491;DHT22;8356;51.214;3.270;2024-02-15T20:52:31;384.60;2329.60
16491;DHT22;8356;51.214;3.270;2024-02-15T20:54:58;384.60;2329.60
16491;DHT22;8356;51.214;3.270;2024-02-15T20:57:24;384.60;2329.60
16491;DHT22;8356;51.214;3.270;2024-02-15T20:59:52;384.60;2329.60
16491;DHT22;8356;51.214;3.270;2024-02-15T21:02:18;384.60;2329.60
16491;DHT22;8356;51.214;3.270;2024-02-15T21:04:45;384.60;2329.60
16491;DHT22;8356;51.214;3.270;2024-02-15T21:07:11;384.60;2329.60
16491;DHT22;8356;51.214;3.270;2024-02-15T21:09:38;384.60;2329.60
16491;DHT22;8356;51.214;3.270;2024-02-15T21:12:06;384.60;2329.60
16491;DHT22;8356;51.214;3.270;2024-02-15T21:14:32;384.60;2329.60
16491;DHT22;8356;51.214;3.270;2024-02-15T21:16:58;384.50;2329.60
16491;DHT22;8356;51.214;3.270;2024-02-15T21:19:24;384.50;2329.60
16491;DHT22;8356;51.214;3.270;2024-02-15T21:21:49;384.50;2329.60
16491;DHT22;8356;51.214;3.270;2024-02-15T21:24:15;384.40;2329.60
16491;DHT22;8356;51.214;3.270;2024-02-15T21:26:42;384.40;2329.60
16491;DHT22;8356;51.214;3.270;2024-02-15T21:29:08;384.40;2329.60
16491;DHT22;8356;51.214;3.270;2024-02-15T21:31:33;384.50;2329.60
16491;DHT22;8356;51.214;3.270;2024-02-15T21:33:59;384.50;2329.60
16491;DHT22;8356;51.214;3.270;2024-02-15T21:36:33;384.50;2329.60
16491;DHT22;8356;51.214;3.270;2024-02-15T21:38:59;384.40;2329.60
16491;DHT22;8356;51.214;3.270;2024-02-15T21:41:25;384.40;2329.60
16491;DHT22;8356;51.214;3.270;2024-02-15T21:43:51;384.40;2329.60
16491;DHT22;8356;51.214;3.270;2024-02-15T21:46:19;435.90;2355.20
16491;DHT22;8356;51.214;3.270;2024-02-15T21:48:46;384.40;2329.60
16491;DHT22;8356;51.214;3.270;2024-02-15T21:51:12;384.40;2329.60
16491;DHT22;8356;51.214;3.270;2024-02-15T21:53:37;384.40;2329.60
16491;DHT22;8356;51.214;3.270;2024-02-15T21:56:04;384.30;2329.60
16491;DHT22;8356;51.214;3.270;2024-02-15T21:58:30;384.30;2329.60
16491;DHT22;8356;51.214;3.270;2024-02-15T22:00:56;384.30;2329.60
16491;DHT22;8356;51.214;3.270;2024-02-15T22:03:22;384.30;2329.60
16491;DHT22;8356;51.214;3.270;2024-02-15T22:05:48;384.30;2329.60
16491;DHT22;8356;51.214;3.270;2024-02-15T22:08:13;384.30;2329.60
16491;DHT22;8356;51.214;3.270;2024-02-15T22:10:40;384.30;2329.60
16491;DHT22;8356;51.214;3.270;2024-02-15T22:13:06;384.30;2329.60
16491;DHT22;8356;51.214;3.270;2024-02-15T22:15:32;384.30;2329.60
16491;DHT22;8356;51.214;3.270;2024-02-15T22:17:59;384.20;2329.60
16491;DHT22;8356;51.214;3.270;2024-02-15T22:20:25;384.30;2329.60
16491;DHT22;8356;51.214;3.270;2024-02-15T22:22:52;384.20;2329.60
16491;DHT22;8356;51.214;3.270;2024-02-15T22:25:18;384.30;2329.60
16491;DHT22;8356;51.214;3.270;2024-02-15T22:27:44;384.30;2329.60
16491;DHT22;8356;51.214;3.270;2024-02-15T22:30:10;384.20;2329.60
16491;DHT22;8356;51.214;3.270;2024-02-15T22:32:36;410.20;2355.20
16491;DHT22;8356;51.214;3.270;2024-02-15T22:35:03;384.20;2329.60
16491;DHT22;8356;51.214;3.270;2024-02-15T22:37:28;359.10;2329.60
16491;DHT22;8356;51.214;3.270;2024-02-15T22:39:54;384.20;2329.60
16491;DHT22;8356;51.214;3.270;2024-02-15T22:42:20;384.20;2329.60
16491;DHT22;8356;51.214;3.270;2024-02-15T22:44:46;384.20;2329.60
16491;DHT22;8356;51.214;3.270;2024-02-15T22:47:15;384.20;2329.60
16491;DHT22;8356;51.214;3.270;2024-02-15T22:49:41;384.20;2329.60
16491;DHT22;8356;51.214;3.270;2024-02-15T22:52:06;384.20;2329.60
16491;DHT22;8356;51.214;3.270;2024-02-15T22:54:32;384.20;2329.60
16491;DHT22;8356;51.214;3.270;2024-02-15T22:57:03;384.20;2329.60
16491;DHT22;8356;51.214;3.270;2024-02-15T22:59:29;384.20;2329.60
16491;DHT22;8356;51.214;3.270;2024-02-15T23:01:54;384.10;2329.60
16491;DHT22;8356;51.214;3.270;2024-02-15T23:04:20;384.10;2329.60
16491;DHT22;8356;51.214;3.270;2024-02-15T23:06:46;384.20;2329.60
16491;DHT22;8356;51.214;3.270;2024-02-15T23:09:11;384.10;2329.60
16491;DHT22;8356;51.214;3.270;2024-02-15T23:11:39;384.10;2329.60
16491;DHT22;8356;51.214;3.270;2024-02-15T23:14:04;384.10;2329.60
16491;DHT22;8356;51.214;3.270;2024-02-15T23:16:32;384.20;2329.60
16491;DHT22;8356;51.214;3.270;2024-02-15T23:18:58;384.10;2329.60
16491;DHT22;8356;51.214;3.270;2024-02-15T23:21:23;384.10;2329.60
16491;DHT22;8356;51.214;3.270;2024-02-15T23:23:49;384.10;2329.60
16491;DHT22;8356;51.214;3.270;2024-02-15T23:26:14;384.10;2329.60
16491;DHT22;8356;51.214;3.270;2024-02-15T23:28:41;384.10;2329.60
16491;DHT22;8356;51.214;3.270;2024-02-15T23:31:09;384.10;2329.60
16491;DHT22;8356;51.214;3.270;2024-02-15T23:33:35;384.00;2329.60
16491;DHT22;8356;51.214;3.270;2024-02-15T23:36:00;384.00;2329.60
16491;DHT22;8356;51.214;3.270;2024-02-15T23:38:45;384.00;2329.60
16491;DHT22;8356;51.214;3.270;2024-02-15T23:41:29;384.10;2329.60
16491;DHT22;8356;51.214;3.270;2024-02-15T23:43:54;384.00;2329.60
16491;DHT22;8356;51.214;3.270;2024-02-15T23:46:20;384.00;2329.60
16491;DHT22;8356;51.214;3.270;2024-02-15T23:48:48;359.30;2329.60
16491;DHT22;8356;51.214;3.270;2024-02-15T23:51:14;359.30;2329.60
16491;DHT22;8356;51.214;3.270;2024-02-15T23:53:39;359.30;2329.60
16491;DHT22;8356;51.214;3.270;2024-02-15T23:56:08;359.30;2329.60
16491;DHT22;8356;51.214;3.270;2024-02-15T23:58:34;359.30;2329.60
